sensor_id;sensor_type;location;lat;lon;timestamp;pressure;altitude;pressure_sealevel;temperature;humidity
7802;BME280;3945;48.952;9.506;2023-02-02T00:01:09;98491.00;;;5.90;83.31
7802;BME280;3945;48.952;9.506;2023-02-02T00:03:35;98491.00;;;5.90;83.08
7802;BME280;3945;48.952;9.506;2023-02-02T00:06:02;98483.69;;;5.92;83.50
7802;BME280;3945;48.952;9.506;2023-02-02T00:08:29;98492.63;;;5.91;84.41
7802;BME280;3945;48.952;9.506;2023-02-02T00:10:55;98485.91;;;5.88;84.39
7802;BME280;3945;48.952;9.506;2023-02-02T00:13:22;98478.97;;;5.87;84.44
7802;BME280;3945;48.952;9.506;2023-02-02T00:15:48;98481.59;;;5.87;84.23
7802;BME280;3945;48.952;9.506;2023-02-02T00:18:16;98480.38;;;5.83;85.01
7802;BME280;3945;48.952;9.506;2023-02-02T00:20:42;98479.34;;;5.84;84.75
7802;BME280;3945;48.952;9.506;2023-02-02T00:23:09;98483.63;;;5.85;84.97
7802;BME280;3945;48.952;9.506;2023-02-02T00:25:35;98487.06;;;5.85;84.38
7802;BME280;3945;48.952;9.506;2023-02-02T00:28:02;98492.00;;;5.88;84.03
7802;BME280;3945;48.952;9.506;2023-02-02T00:30:29;98487.72;;;5.87;84.32
7802;BME280;3945;48.952;9.506;2023-02-02T00:32:55;98485.25;;;5.86;84.40
7802;BME280;3945;48.952;9.506;2023-02-02T00:35:23;98498.09;;;5.89;84.53
7802;BME280;3945;48.952;9.506;2023-02-02T00:37:49;98484.25;;;5.87;84.72
7802;BME280;3945;48.952;9.506;2023-02-02T00:40:15;98484.44;;;5.85;84.80
7802;BME280;3945;48.952;9.506;2023-02-02T00:42:42;98482.59;;;5.86;85.01
7802;BME280;3945;48.952;9.506;2023-02-02T00:45:13;98484.09;;;5.88;84.59
7802;BME280;3945;48.952;9.506;2023-02-02T00:47:41;98483.06;;;5.90;84.46
7802;BME280;3945;48.952;9.506;2023-02-02T00:50:09;98482.06;;;5.91;84.27
7802;BME280;3945;48.952;9.506;2023-02-02T00:52:37;98479.44;;;5.91;84.29
7802;BME280;3945;48.952;9.506;2023-02-02T00:55:04;98479.44;;;5.91;84.89
7802;BME280;3945;48.952;9.506;2023-02-02T00:57:30;98466.22;;;5.91;84.98
7802;BME280;3945;48.952;9.506;2023-02-02T00:59:57;98481.25;;;5.90;84.74
7802;BME280;3945;48.952;9.506;2023-02-02T01:02:23;98478.00;;;5.95;83.85
7802;BME280;3945;48.952;9.506;2023-02-02T01:04:50;98487.75;;;5.94;83.77
7802;BME280;3945;48.952;9.506;2023-02-02T01:07:16;98479.03;;;5.94;84.57
7802;BME280;3945;48.952;9.506;2023-02-02T01:09:44;98486.56;;;5.97;84.28
7802;BME280;3945;48.952;9.506;2023-02-02T01:12:10;98485.94;;;5.95;84.48
7802;BME280;3945;48.952;9.506;2023-02-02T01:14:36;98482.66;;;5.93;84.76
7802;BME280;3945;48.952;9.506;2023-02-02T01:17:03;98481.03;;;5.92;85.58
7802;BME280;3945;48.952;9.506;2023-02-02T01:19:30;98486.31;;;5.92;85.36
7802;BME280;3945;48.952;9.506;2023-02-02T01:21:56;98477.19;;;5.94;84.88
7802;BME280;3945;48.952;9.506;2023-02-02T01:24:23;98489.59;;;5.94;85.89
7802;BME280;3945;48.952;9.506;2023-02-02T01:26:50;98473.94;;;5.92;86.13
7802;BME280;3945;48.952;9.506;2023-02-02T01:29:17;98490.59;;;5.93;86.42
7802;BME280;3945;48.952;9.506;2023-02-02T01:31:43;98492.63;;;5.91;86.81
7802;BME280;3945;48.952;9.506;2023-02-02T01:34:09;98489.53;;;5.87;86.69
7802;BME280;3945;48.952;9.506;2023-02-02T01:36:36;98498.47;;;5.86;87.44
7802;BME280;3945;48.952;9.506;2023-02-02T01:39:02;98493.00;;;5.87;87.80
7802;BME280;3945;48.952;9.506;2023-02-02T01:41:29;98498.47;;;5.86;87.63
7802;BME280;3945;48.952;9.506;2023-02-02T01:43:57;98488.69;;;5.80;88.06
7802;BME280;3945;48.952;9.506;2023-02-02T01:46:25;98503.72;;;5.79;88.47
7802;BME280;3945;48.952;9.506;2023-02-02T01:48:53;98490.88;;;5.76;89.85
7802;BME280;3945;48.952;9.506;2023-02-02T01:51:21;98491.66;;;5.70;90.55
7802;BME280;3945;48.952;9.506;2023-02-02T01:53:50;98484.75;;;5.69;90.77
7802;BME280;3945;48.952;9.506;2023-02-02T01:56:18;98489.63;;;5.66;90.37
7802;BME280;3945;48.952;9.506;2023-02-02T01:58:46;98486.56;;;5.62;91.37
7802;BME280;3945;48.952;9.506;2023-02-02T02:01:14;98492.25;;;5.59;91.06
7802;BME280;3945;48.952;9.506;2023-02-02T02:03:40;98482.09;;;5.63;91.46
7802;BME280;3945;48.952;9.506;2023-02-02T02:06:07;98480.66;;;5.60;91.41
7802;BME280;3945;48.952;9.506;2023-02-02T02:08:36;98479.66;;;5.61;91.07
7802;BME280;3945;48.952;9.506;2023-02-02T02:11:03;98483.13;;;5.62;91.37
7802;BME280;3945;48.952;9.506;2023-02-02T02:13:30;98467.28;;;5.62;91.23
7802;BME280;3945;48.952;9.506;2023-02-02T02:16:13;98479.25;;;5.64;91.49
7802;BME280;3945;48.952;9.506;2023-02-02T02:18:49;98484.34;;;5.66;90.88
7802;BME280;3945;48.952;9.506;2023-02-02T02:21:37;98477.88;;;5.68;90.30
7802;BME280;3945;48.952;9.506;2023-02-02T02:30:34;98464.44;;;5.70;90.49
7802;BME280;3945;48.952;9.506;2023-02-02T02:33:04;98463.25;;;5.72;89.92
7802;BME280;3945;48.952;9.506;2023-02-02T02:35:34;98459.59;;;5.73;90.04
7802;BME280;3945;48.952;9.506;2023-02-02T02:38:03;98471.63;;;5.76;89.63
7802;BME280;3945;48.952;9.506;2023-02-02T02:40:34;98465.09;;;5.78;89.62
7802;BME280;3945;48.952;9.506;2023-02-02T02:43:04;98482.41;;;5.81;89.49
7802;BME280;3945;48.952;9.506;2023-02-02T02:45:33;98480.56;;;5.81;89.40
7802;BME280;3945;48.952;9.506;2023-02-02T02:48:01;98472.66;;;5.81;89.92
7802;BME280;3945;48.952;9.506;2023-02-02T02:50:29;98470.19;;;5.80;89.70
7802;BME280;3945;48.952;9.506;2023-02-02T02:52:57;98474.28;;;5.82;89.74
7802;BME280;3945;48.952;9.506;2023-02-02T02:55:24;98473.84;;;5.79;90.09
7802;BME280;3945;48.952;9.506;2023-02-02T02:57:57;98476.50;;;5.79;90.40
7802;BME280;3945;48.952;9.506;2023-02-02T03:00:28;98476.06;;;5.75;90.88
7802;BME280;3945;48.952;9.506;2023-02-02T03:03:01;98475.84;;;5.70;91.97
7802;BME280;3945;48.952;9.506;2023-02-02T03:05:32;98475.66;;;5.72;91.69
7802;BME280;3945;48.952;9.506;2023-02-02T03:08:05;98477.47;;;5.71;91.49
7802;BME280;3945;48.952;9.506;2023-02-02T03:10:33;98474.81;;;5.71;91.48
7802;BME280;3945;48.952;9.506;2023-02-02T03:13:00;98480.72;;;5.73;91.42
7802;BME280;3945;48.952;9.506;2023-02-02T03:15:31;98485.38;;;5.71;91.79
7802;BME280;3945;48.952;9.506;2023-02-02T03:17:57;98480.50;;;5.68;92.11
7802;BME280;3945;48.952;9.506;2023-02-02T03:20:24;98477.66;;;5.70;91.86
7802;BME280;3945;48.952;9.506;2023-02-02T03:22:51;98481.09;;;5.70;92.04
7802;BME280;3945;48.952;9.506;2023-02-02T03:25:18;98492.69;;;5.69;92.25
7802;BME280;3945;48.952;9.506;2023-02-02T03:27:44;98485.38;;;5.71;92.28
7802;BME280;3945;48.952;9.506;2023-02-02T03:30:11;98486.63;;;5.69;91.91
7802;BME280;3945;48.952;9.506;2023-02-02T03:32:38;98494.72;;;5.67;92.08
7802;BME280;3945;48.952;9.506;2023-02-02T03:35:05;98472.78;;;5.67;92.03
7802;BME280;3945;48.952;9.506;2023-02-02T03:37:32;98471.78;;;5.68;92.07
7802;BME280;3945;48.952;9.506;2023-02-02T03:40:00;98484.56;;;5.71;91.71
7802;BME280;3945;48.952;9.506;2023-02-02T03:42:26;98479.28;;;5.71;91.04
7802;BME280;3945;48.952;9.506;2023-02-02T03:44:52;98489.03;;;5.70;91.97
7802;BME280;3945;48.952;9.506;2023-02-02T03:47:19;98495.75;;;5.73;91.87
7802;BME280;3945;48.952;9.506;2023-02-02T03:49:45;98503.69;;;5.73;91.78
7802;BME280;3945;48.952;9.506;2023-02-02T03:52:11;98498.22;;;5.74;91.19
7802;BME280;3945;48.952;9.506;2023-02-02T03:54:37;98513.22;;;5.74;91.36
7802;BME280;3945;48.952;9.506;2023-02-02T03:57:05;98500.44;;;5.77;90.79
7802;BME280;3945;48.952;9.506;2023-02-02T03:59:31;98492.13;;;5.80;90.54
7802;BME280;3945;48.952;9.506;2023-02-02T04:01:58;98498.63;;;5.78;90.65
7802;BME280;3945;48.952;9.506;2023-02-02T04:04:24;98506.97;;;5.81;90.55
7802;BME280;3945;48.952;9.506;2023-02-02T04:06:50;98507.78;;;5.82;90.39
7802;BME280;3945;48.952;9.506;2023-02-02T04:09:17;98512.25;;;5.81;90.92
7802;BME280;3945;48.952;9.506;2023-02-02T04:11:43;98508.63;;;5.82;90.46
7802;BME280;3945;48.952;9.506;2023-02-02T04:14:11;98509.63;;;5.81;91.08
7802;BME280;3945;48.952;9.506;2023-02-02T04:16:37;98513.25;;;5.80;91.04
7802;BME280;3945;48.952;9.506;2023-02-02T04:19:04;98513.91;;;5.82;90.63
7802;BME280;3945;48.952;9.506;2023-02-02T04:21:30;98510.44;;;5.82;91.08
7802;BME280;3945;48.952;9.506;2023-02-02T04:23:57;98515.53;;;5.83;90.54
7802;BME280;3945;48.952;9.506;2023-02-02T04:26:23;98516.13;;;5.85;90.76
7802;BME280;3945;48.952;9.506;2023-02-02T04:28:50;98521.06;;;5.88;90.43
7802;BME280;3945;48.952;9.506;2023-02-02T04:31:18;98525.34;;;5.90;90.48
7802;BME280;3945;48.952;9.506;2023-02-02T04:33:44;98522.69;;;5.90;90.63
7802;BME280;3945;48.952;9.506;2023-02-02T04:36:11;98514.16;;;5.87;91.11
7802;BME280;3945;48.952;9.506;2023-02-02T04:38:38;98530.81;;;5.88;90.23
7802;BME280;3945;48.952;9.506;2023-02-02T04:41:05;98522.88;;;5.88;90.27
7802;BME280;3945;48.952;9.506;2023-02-02T04:43:32;98524.31;;;5.91;90.81
7802;BME280;3945;48.952;9.506;2023-02-02T04:45:58;98523.69;;;5.88;90.38
7802;BME280;3945;48.952;9.506;2023-02-02T04:48:26;98527.97;;;5.90;90.77
7802;BME280;3945;48.952;9.506;2023-02-02T04:50:56;98528.38;;;5.93;90.29
7802;BME280;3945;48.952;9.506;2023-02-02T04:53:23;98524.31;;;5.91;90.22
7802;BME280;3945;48.952;9.506;2023-02-02T04:55:49;98532.03;;;5.92;90.67
7802;BME280;3945;48.952;9.506;2023-02-02T04:58:15;98542.81;;;5.91;90.32
7802;BME280;3945;48.952;9.506;2023-02-02T05:00:42;98537.31;;;5.92;90.25
7802;BME280;3945;48.952;9.506;2023-02-02T05:03:09;98548.69;;;5.93;90.06
7802;BME280;3945;48.952;9.506;2023-02-02T05:05:36;98551.53;;;5.91;90.15
7802;BME280;3945;48.952;9.506;2023-02-02T05:08:03;98545.88;;;5.94;89.79
7802;BME280;3945;48.952;9.506;2023-02-02T05:10:31;98558.44;;;5.92;90.38
7802;BME280;3945;48.952;9.506;2023-02-02T05:12:58;98548.31;;;5.96;89.95
7802;BME280;3945;48.952;9.506;2023-02-02T05:15:24;98549.31;;;5.95;90.02
7802;BME280;3945;48.952;9.506;2023-02-02T05:17:50;98543.66;;;5.98;89.97
7802;BME280;3945;48.952;9.506;2023-02-02T05:20:17;98547.50;;;5.95;89.73
7802;BME280;3945;48.952;9.506;2023-02-02T05:22:45;98547.31;;;5.97;89.54
7802;BME280;3945;48.952;9.506;2023-02-02T05:25:13;98534.94;;;5.97;89.92
7802;BME280;3945;48.952;9.506;2023-02-02T05:27:41;98549.13;;;5.96;89.51
7802;BME280;3945;48.952;9.506;2023-02-02T05:30:08;98546.31;;;5.98;90.18
7802;BME280;3945;48.952;9.506;2023-02-02T05:32:35;98549.72;;;5.98;90.12
7802;BME280;3945;48.952;9.506;2023-02-02T05:35:02;98554.81;;;6.00;89.97
7802;BME280;3945;48.952;9.506;2023-02-02T05:37:28;98556.06;;;5.97;89.98
7802;BME280;3945;48.952;9.506;2023-02-02T05:39:56;98561.13;;;5.99;90.15
7802;BME280;3945;48.952;9.506;2023-02-02T05:42:22;98560.94;;;6.00;89.14
7802;BME280;3945;48.952;9.506;2023-02-02T05:44:48;98569.84;;;5.99;89.50
7802;BME280;3945;48.952;9.506;2023-02-02T05:47:15;98570.88;;;5.98;89.84
7802;BME280;3945;48.952;9.506;2023-02-02T05:49:41;98573.50;;;5.98;90.08
7802;BME280;3945;48.952;9.506;2023-02-02T05:52:08;98569.66;;;6.01;89.63
7802;BME280;3945;48.952;9.506;2023-02-02T05:54:37;98572.31;;;6.01;90.00
7802;BME280;3945;48.952;9.506;2023-02-02T05:57:05;98567.22;;;5.99;89.87
7802;BME280;3945;48.952;9.506;2023-02-02T05:59:31;98565.38;;;6.00;89.74
7802;BME280;3945;48.952;9.506;2023-02-02T06:01:58;98580.84;;;5.96;90.30
7802;BME280;3945;48.952;9.506;2023-02-02T06:04:24;98579.19;;;5.95;90.31
7802;BME280;3945;48.952;9.506;2023-02-02T06:06:50;98577.94;;;5.91;90.55
7802;BME280;3945;48.952;9.506;2023-02-02T06:09:17;98582.03;;;5.94;90.87
7802;BME280;3945;48.952;9.506;2023-02-02T06:11:44;98588.75;;;5.96;90.63
7802;BME280;3945;48.952;9.506;2023-02-02T06:14:13;98597.06;;;5.93;91.91
7802;BME280;3945;48.952;9.506;2023-02-02T06:16:39;98590.13;;;5.92;91.39
7802;BME280;3945;48.952;9.506;2023-02-02T06:19:06;98586.25;;;5.88;91.77
7802;BME280;3945;48.952;9.506;2023-02-02T06:21:32;98595.16;;;5.87;92.32
7802;BME280;3945;48.952;9.506;2023-02-02T06:23:58;98602.28;;;5.86;91.97
7802;BME280;3945;48.952;9.506;2023-02-02T06:26:26;98601.28;;;5.87;91.75
7802;BME280;3945;48.952;9.506;2023-02-02T06:28:53;98603.75;;;5.89;92.12
7802;BME280;3945;48.952;9.506;2023-02-02T06:31:21;98612.09;;;5.93;91.15
7802;BME280;3945;48.952;9.506;2023-02-02T06:33:47;98599.28;;;5.90;91.15
7802;BME280;3945;48.952;9.506;2023-02-02T06:36:17;98606.63;;;5.94;91.25
7802;BME280;3945;48.952;9.506;2023-02-02T06:38:47;98600.50;;;5.94;91.23
7802;BME280;3945;48.952;9.506;2023-02-02T06:41:13;98600.50;;;5.94;90.48
7802;BME280;3945;48.952;9.506;2023-02-02T06:43:39;98608.25;;;5.95;91.00
7802;BME280;3945;48.952;9.506;2023-02-02T06:46:06;98603.97;;;5.94;90.87
7802;BME280;3945;48.952;9.506;2023-02-02T06:48:34;98608.63;;;5.92;91.52
7802;BME280;3945;48.952;9.506;2023-02-02T06:51:01;98616.19;;;5.95;90.65
7802;BME280;3945;48.952;9.506;2023-02-02T06:53:27;98604.59;;;5.96;90.46
7802;BME280;3945;48.952;9.506;2023-02-02T06:55:54;98608.06;;;5.97;90.74
7802;BME280;3945;48.952;9.506;2023-02-02T06:58:20;98611.53;;;5.97;91.31
7802;BME280;3945;48.952;9.506;2023-02-02T07:00:47;98610.25;;;5.93;91.21
7802;BME280;3945;48.952;9.506;2023-02-02T07:03:13;98618.19;;;5.93;91.22
7802;BME280;3945;48.952;9.506;2023-02-02T07:05:41;98615.59;;;6.00;90.68
7802;BME280;3945;48.952;9.506;2023-02-02T07:08:07;98622.09;;;5.97;90.58
7802;BME280;3945;48.952;9.506;2023-02-02T07:10:35;98614.16;;;5.97;90.34
7802;BME280;3945;48.952;9.506;2023-02-02T07:13:01;98623.50;;;6.00;90.39
7802;BME280;3945;48.952;9.506;2023-02-02T07:15:27;98624.31;;;6.00;90.50
7802;BME280;3945;48.952;9.506;2023-02-02T07:17:54;98619.66;;;6.02;90.63
7802;BME280;3945;48.952;9.506;2023-02-02T07:20:20;98623.94;;;6.03;90.40
7802;BME280;3945;48.952;9.506;2023-02-02T07:22:48;98620.31;;;6.04;90.07
7802;BME280;3945;48.952;9.506;2023-02-02T07:25:14;98626.81;;;6.08;90.20
7802;BME280;3945;48.952;9.506;2023-02-02T07:27:40;98619.53;;;6.10;90.25
7802;BME280;3945;48.952;9.506;2023-02-02T07:30:07;98624.16;;;6.08;89.76
7802;BME280;3945;48.952;9.506;2023-02-02T07:32:34;98627.63;;;6.09;90.32
7802;BME280;3945;48.952;9.506;2023-02-02T07:35:00;98624.81;;;6.10;89.99
7802;BME280;3945;48.952;9.506;2023-02-02T07:37:27;98628.44;;;6.09;89.84
7802;BME280;3945;48.952;9.506;2023-02-02T07:39:54;98627.63;;;6.09;90.42
7802;BME280;3945;48.952;9.506;2023-02-02T07:42:21;98630.91;;;6.11;90.11
7802;BME280;3945;48.952;9.506;2023-02-02T07:44:47;98625.19;;;6.07;89.81
7802;BME280;3945;48.952;9.506;2023-02-02T07:47:13;98625.81;;;6.09;89.98
7802;BME280;3945;48.952;9.506;2023-02-02T07:49:41;98630.09;;;6.10;90.67
7802;BME280;3945;48.952;9.506;2023-02-02T07:52:09;98629.69;;;6.13;90.39
7802;BME280;3945;48.952;9.506;2023-02-02T07:54:35;98641.66;;;6.09;90.52
7802;BME280;3945;48.952;9.506;2023-02-02T07:57:03;98632.53;;;6.12;89.77
7802;BME280;3945;48.952;9.506;2023-02-02T07:59:29;98631.91;;;6.10;89.79
7802;BME280;3945;48.952;9.506;2023-02-02T08:01:55;98629.91;;;6.12;89.80
7802;BME280;3945;48.952;9.506;2023-02-02T08:04:22;98629.09;;;6.11;89.75
7802;BME280;3945;48.952;9.506;2023-02-02T08:06:48;98637.59;;;6.13;89.78
7802;BME280;3945;48.952;9.506;2023-02-02T08:09:14;98642.47;;;6.10;90.53
7802;BME280;3945;48.952;9.506;2023-02-02T08:11:41;98652.03;;;6.11;90.57
7802;BME280;3945;48.952;9.506;2023-02-02T08:14:09;98648.59;;;6.10;89.77
7802;BME280;3945;48.952;9.506;2023-02-02T08:16:37;98653.88;;;6.10;90.86
7802;BME280;3945;48.952;9.506;2023-02-02T08:19:03;98663.22;;;6.13;90.15
7802;BME280;3945;48.952;9.506;2023-02-02T08:21:31;98656.09;;;6.13;90.25
7802;BME280;3945;48.952;9.506;2023-02-02T08:23:57;98665.84;;;6.13;90.23
7802;BME280;3945;48.952;9.506;2023-02-02T08:26:24;98677.88;;;6.15;90.33
7802;BME280;3945;48.952;9.506;2023-02-02T08:28:51;98676.88;;;6.16;90.19
7802;BME280;3945;48.952;9.506;2023-02-02T08:31:20;98674.22;;;6.16;89.85
7802;BME280;3945;48.952;9.506;2023-02-02T08:33:47;98681.91;;;6.11;90.17
7802;BME280;3945;48.952;9.506;2023-02-02T08:36:14;98678.06;;;6.14;89.95
7802;BME280;3945;48.952;9.506;2023-02-02T08:38:41;98683.97;;;6.16;89.72
7802;BME280;3945;48.952;9.506;2023-02-02T08:41:08;98683.78;;;6.17;90.20
7802;BME280;3945;48.952;9.506;2023-02-02T08:43:35;98678.88;;;6.14;89.37
7802;BME280;3945;48.952;9.506;2023-02-02T08:46:01;98690.06;;;6.16;90.09
7802;BME280;3945;48.952;9.506;2023-02-02T08:48:29;98678.06;;;6.14;89.49
7802;BME280;3945;48.952;9.506;2023-02-02T08:50:56;98673.22;;;6.17;89.66
7802;BME280;3945;48.952;9.506;2023-02-02T08:53:23;98685.00;;;6.21;89.53
7802;BME280;3945;48.952;9.506;2023-02-02T08:55:56;98678.09;;;6.20;89.20
7802;BME280;3945;48.952;9.506;2023-02-02T08:58:22;98685.00;;;6.21;89.07
7802;BME280;3945;48.952;9.506;2023-02-02T09:00:49;98674.25;;;6.23;89.00
7802;BME280;3945;48.952;9.506;2023-02-02T09:03:15;98684.84;;;6.23;89.13
7802;BME280;3945;48.952;9.506;2023-02-02T09:05:43;98681.19;;;6.24;89.29
7802;BME280;3945;48.952;9.506;2023-02-02T09:08:09;98682.63;;;6.26;89.16
7802;BME280;3945;48.952;9.506;2023-02-02T09:10:36;98688.09;;;6.25;89.91
7802;BME280;3945;48.952;9.506;2023-02-02T09:13:02;98684.22;;;6.27;88.81
7802;BME280;3945;48.952;9.506;2023-02-02T09:15:29;98693.81;;;6.28;89.85
7802;BME280;3945;48.952;9.506;2023-02-02T09:17:55;98687.69;;;6.28;89.58
7802;BME280;3945;48.952;9.506;2023-02-02T09:20:21;98694.22;;;6.25;89.43
7802;BME280;3945;48.952;9.506;2023-02-02T09:22:49;98678.75;;;6.29;88.54
7802;BME280;3945;48.952;9.506;2023-02-02T09:25:15;98687.69;;;6.28;89.13
7802;BME280;3945;48.952;9.506;2023-02-02T09:27:42;98685.69;;;6.30;89.23
7802;BME280;3945;48.952;9.506;2023-02-02T09:30:09;98677.94;;;6.28;88.73
7802;BME280;3945;48.952;9.506;2023-02-02T09:32:35;98691.97;;;6.29;89.12
7802;BME280;3945;48.952;9.506;2023-02-02T09:35:01;98688.13;;;6.32;88.78
7802;BME280;3945;48.952;9.506;2023-02-02T09:37:28;98690.38;;;6.35;88.83
7802;BME280;3945;48.952;9.506;2023-02-02T09:39:56;98694.47;;;6.37;89.27
7802;BME280;3945;48.952;9.506;2023-02-02T09:42:28;98715.63;;;6.37;89.28
7802;BME280;3945;48.952;9.506;2023-02-02T09:44:59;98709.94;;;6.40;89.57
7802;BME280;3945;48.952;9.506;2023-02-02T09:47:30;98712.81;;;6.45;89.74
7802;BME280;3945;48.952;9.506;2023-02-02T09:50:01;98710.00;;;6.47;89.11
7802;BME280;3945;48.952;9.506;2023-02-02T09:52:29;98710.19;;;6.45;88.98
7802;BME280;3945;48.952;9.506;2023-02-02T09:55:01;98710.19;;;6.45;89.60
7802;BME280;3945;48.952;9.506;2023-02-02T09:57:30;98716.09;;;6.47;89.21
7802;BME280;3945;48.952;9.506;2023-02-02T09:59:58;98721.16;;;6.49;89.15
7802;BME280;3945;48.952;9.506;2023-02-02T10:02:26;98719.34;;;6.49;88.52
7802;BME280;3945;48.952;9.506;2023-02-02T10:04:55;98723.63;;;6.50;89.16
7802;BME280;3945;48.952;9.506;2023-02-02T10:07:26;98707.94;;;6.49;89.28
7802;BME280;3945;48.952;9.506;2023-02-02T10:09:56;98714.69;;;6.51;88.76
7802;BME280;3945;48.952;9.506;2023-02-02T10:12:29;98720.38;;;6.48;89.16
7802;BME280;3945;48.952;9.506;2023-02-02T10:14:59;98708.75;;;6.49;89.04
7802;BME280;3945;48.952;9.506;2023-02-02T10:17:37;98703.47;;;6.49;88.95
7802;BME280;3945;48.952;9.506;2023-02-02T10:20:13;98723.00;;;6.48;89.36
7802;BME280;3945;48.952;9.506;2023-02-02T10:22:42;98710.00;;;6.47;89.70
7802;BME280;3945;48.952;9.506;2023-02-02T10:25:10;98714.69;;;6.51;90.49
7802;BME280;3945;48.952;9.506;2023-02-02T10:27:39;98704.91;;;6.52;90.13
7802;BME280;3945;48.952;9.506;2023-02-02T10:30:07;98710.03;;;6.53;88.85
7802;BME280;3945;48.952;9.506;2023-02-02T10:32:37;98715.53;;;6.58;89.67
7802;BME280;3945;48.952;9.506;2023-02-02T10:35:15;98717.53;;;6.56;90.10
7802;BME280;3945;48.952;9.506;2023-02-02T10:37:47;98717.75;;;6.55;90.66
7802;BME280;3945;48.952;9.506;2023-02-02T10:40:21;98713.88;;;6.57;90.06
7802;BME280;3945;48.952;9.506;2023-02-02T10:42:59;98718.59;;;6.55;90.49
7802;BME280;3945;48.952;9.506;2023-02-02T10:45:47;98709.59;;;6.56;90.61
7802;BME280;3945;48.952;9.506;2023-02-02T10:48:15;98716.97;;;6.61;89.77
7802;BME280;3945;48.952;9.506;2023-02-02T10:50:43;98723.91;;;6.62;89.91
7802;BME280;3945;48.952;9.506;2023-02-02T10:53:11;98722.50;;;6.66;90.10
7802;BME280;3945;48.952;9.506;2023-02-02T10:55:38;98727.97;;;6.64;89.88
7802;BME280;3945;48.952;9.506;2023-02-02T10:58:11;98730.78;;;6.63;90.48
7802;BME280;3945;48.952;9.506;2023-02-02T11:00:45;98742.41;;;6.62;89.67
7802;BME280;3945;48.952;9.506;2023-02-02T11:03:13;98741.97;;;6.58;90.61
7802;BME280;3945;48.952;9.506;2023-02-02T11:05:39;98739.50;;;6.57;90.37
7802;BME280;3945;48.952;9.506;2023-02-02T11:08:27;98729.56;;;6.59;89.79
7802;BME280;3945;48.952;9.506;2023-02-02T11:10:55;98742.16;;;6.57;91.13
7802;BME280;3945;48.952;9.506;2023-02-02T11:13:29;98740.34;;;6.57;90.73
7802;BME280;3945;48.952;9.506;2023-02-02T11:18:43;98747.03;;;6.53;91.19
7802;BME280;3945;48.952;9.506;2023-02-02T11:21:14;98741.31;;;6.50;91.39
7802;BME280;3945;48.952;9.506;2023-02-02T11:23:49;98735.41;;;6.48;91.97
7802;BME280;3945;48.952;9.506;2023-02-02T11:26:15;98746.38;;;6.45;92.03
7802;BME280;3945;48.952;9.506;2023-02-02T11:28:43;98739.63;;;6.42;91.27
7802;BME280;3945;48.952;9.506;2023-02-02T11:31:28;98740.25;;;6.44;92.16
7802;BME280;3945;48.952;9.506;2023-02-02T11:33:55;98743.91;;;6.43;91.09
7802;BME280;3945;48.952;9.506;2023-02-02T11:36:32;98741.44;;;6.42;90.83
7802;BME280;3945;48.952;9.506;2023-02-02T11:39:11;98751.03;;;6.43;91.98
7802;BME280;3945;48.952;9.506;2023-02-02T11:41:39;98747.38;;;6.44;91.66
7802;BME280;3945;48.952;9.506;2023-02-02T11:44:09;98748.00;;;6.46;92.40
7802;BME280;3945;48.952;9.506;2023-02-02T11:46:38;98745.72;;;6.43;92.60
7802;BME280;3945;48.952;9.506;2023-02-02T11:49:04;98736.59;;;6.45;92.16
7802;BME280;3945;48.952;9.506;2023-02-02T11:51:32;98743.69;;;6.38;92.29
7802;BME280;3945;48.952;9.506;2023-02-02T11:54:00;98735.94;;;6.37;92.68
7802;BME280;3945;48.952;9.506;2023-02-02T11:56:27;98734.13;;;6.37;93.21
7802;BME280;3945;48.952;9.506;2023-02-02T11:58:54;98734.50;;;6.34;92.77
7802;BME280;3945;48.952;9.506;2023-02-02T12:01:25;98737.34;;;6.33;93.83
7802;BME280;3945;48.952;9.506;2023-02-02T12:03:52;98734.50;;;6.34;92.85
7802;BME280;3945;48.952;9.506;2023-02-02T12:06:20;98741.81;;;6.32;92.29
7802;BME280;3945;48.952;9.506;2023-02-02T12:08:46;98745.47;;;6.31;93.30
7802;BME280;3945;48.952;9.506;2023-02-02T12:11:16;98737.72;;;6.30;93.06
7802;BME280;3945;48.952;9.506;2023-02-02T12:13:48;98744.66;;;6.31;93.95
7802;BME280;3945;48.952;9.506;2023-02-02T12:16:22;98738.72;;;6.28;92.42
7802;BME280;3945;48.952;9.506;2023-02-02T12:18:58;98745.25;;;6.26;93.21
7802;BME280;3945;48.952;9.506;2023-02-02T12:21:31;98740.97;;;6.25;92.64
7802;BME280;3945;48.952;9.506;2023-02-02T12:24:04;98742.59;;;6.26;93.07
7802;BME280;3945;48.952;9.506;2023-02-02T12:26:36;98742.16;;;6.22;93.37
7802;BME280;3945;48.952;9.506;2023-02-02T12:29:11;98734.03;;;6.24;92.94
7802;BME280;3945;48.952;9.506;2023-02-02T12:31:45;98731.75;;;6.21;93.53
7802;BME280;3945;48.952;9.506;2023-02-02T12:34:18;98742.34;;;6.21;93.26
7802;BME280;3945;48.952;9.506;2023-02-02T12:36:48;98741.50;;;6.20;93.37
7802;BME280;3945;48.952;9.506;2023-02-02T12:39:22;98757.00;;;6.23;92.71
7802;BME280;3945;48.952;9.506;2023-02-02T12:42:06;98748.44;;;6.21;92.50
7802;BME280;3945;48.952;9.506;2023-02-02T12:44:40;98747.03;;;6.19;93.50
7802;BME280;3945;48.952;9.506;2023-02-02T12:47:13;98743.34;;;6.20;93.74
7802;BME280;3945;48.952;9.506;2023-02-02T12:49:49;98741.72;;;6.19;94.73
7802;BME280;3945;48.952;9.506;2023-02-02T12:52:21;98734.00;;;6.17;94.12
7802;BME280;3945;48.952;9.506;2023-02-02T12:54:54;98738.28;;;6.18;94.73
7802;BME280;3945;48.952;9.506;2023-02-02T12:57:28;98738.28;;;6.18;94.79
7802;BME280;3945;48.952;9.506;2023-02-02T13:02:40;98745.97;;;6.20;95.33
7802;BME280;3945;48.952;9.506;2023-02-02T13:05:17;98746.38;;;6.17;95.92
7802;BME280;3945;48.952;9.506;2023-02-02T13:07:50;98743.56;;;6.18;95.58
7802;BME280;3945;48.952;9.506;2023-02-02T13:10:20;98750.03;;;6.16;96.06
7802;BME280;3945;48.952;9.506;2023-02-02T13:12:50;98753.69;;;6.15;96.61
7802;BME280;3945;48.952;9.506;2023-02-02T13:15:19;98745.75;;;6.15;96.38
7802;BME280;3945;48.952;9.506;2023-02-02T13:17:47;98746.19;;;6.18;96.38
7802;BME280;3945;48.952;9.506;2023-02-02T13:20:17;98743.94;;;6.15;96.54
7802;BME280;3945;48.952;9.506;2023-02-02T13:22:45;98740.88;;;6.12;96.27
7802;BME280;3945;48.952;9.506;2023-02-02T13:25:16;98735.78;;;6.10;96.60
7802;BME280;3945;48.952;9.506;2023-02-02T13:27:44;98743.28;;;6.13;96.61
7802;BME280;3945;48.952;9.506;2023-02-02T13:30:16;98748.22;;;6.16;96.88
7802;BME280;3945;48.952;9.506;2023-02-02T13:32:47;98748.41;;;6.15;96.20
7802;BME280;3945;48.952;9.506;2023-02-02T13:35:19;98748.84;;;6.18;96.50
7802;BME280;3945;48.952;9.506;2023-02-02T13:37:48;98755.75;;;6.19;95.33
7802;BME280;3945;48.952;9.506;2023-02-02T13:40:19;98769.75;;;6.20;95.16
7802;BME280;3945;48.952;9.506;2023-02-02T13:42:50;98768.56;;;6.22;95.89
7802;BME280;3945;48.952;9.506;2023-02-02T13:45:27;98771.84;;;6.24;94.85
7802;BME280;3945;48.952;9.506;2023-02-02T13:47:59;98779.38;;;6.27;94.06
7802;BME280;3945;48.952;9.506;2023-02-02T13:50:32;98785.94;;;6.32;93.96